Главная страница
METAR-TAF:

METAR-TAF

Аэропорты :

Grant County Airport

Петербург, Западная Виргиния, США

широта: 38-59N, долгота: 079-08W, высота над уровнем моря: 293 м

Текущие метеонаблюдения

Эта сводка был подготовлена 14 минут назад, в 20:55 UTC
Ветер 7 Узел от западный
Температура 28°C
Влажность 51%
Давление 1018 hPa
Видимость: 16.1 км
ясное небо

METAR: KW99 202055Z AUTO 26007KT 10SM CLR 28/17 A3005 RMK AO2 T02820166

Время: 17:09 (21:09 UTC)


TAF: отсутствует

Метеонаблюдения и прогнозы для более 4000 аэропортов (сводки METAR и TAF).

Имеющиеся станции представлены на карте желтыми и красными точками.

Чтобы увидеть название станции, наведите на нее мышь.

Затем щелкните, чтобы увидеть метеонаблюдения и метеопрогнозы.

Управление картой: чтобы увеличить масштаб, щелкните зеленые кнопки с черным крестиком; чтобы уменьшить масштаб, щелкните зеленую кнопку с тире; для просмотра соседних карт щелкайте зеленые стрелки.


METAR-TAF: